sensor_id;sensor_type;location;lat;lon;timestamp;pressure;altitude;pressure_sealevel;temperature;humidity
12951;BME280;6540;50.858;7.232;2023-03-13T00:01:48;51882.78;;;-142.34;28.73
12951;BME280;6540;50.858;7.232;2023-03-13T00:04:14;51848.50;;;-142.34;28.98
12951;BME280;6540;50.858;7.232;2023-03-13T00:06:39;51860.59;;;-142.34;30.04
12951;BME280;6540;50.858;7.232;2023-03-13T00:09:07;51830.34;;;-142.34;30.53
12951;BME280;6540;50.858;7.232;2023-03-13T00:11:34;51842.44;;;-142.34;29.03
12951;BME280;6540;50.858;7.232;2023-03-13T00:14:01;51818.22;;;-142.34;29.02
12951;BME280;6540;50.858;7.232;2023-03-13T00:16:27;51804.13;;;-142.34;30.31
12951;BME280;6540;50.858;7.232;2023-03-13T00:18:55;51822.25;;;-142.34;28.14
12951;BME280;6540;50.858;7.232;2023-03-13T00:21:23;51818.22;;;-142.34;29.79
12951;BME280;6540;50.858;7.232;2023-03-13T00:23:49;51858.56;;;-142.34;28.78
12951;BME280;6540;50.858;7.232;2023-03-13T00:26:21;51822.25;;;-142.34;28.75
12951;BME280;6540;50.858;7.232;2023-03-13T00:28:47;51830.34;;;-142.34;28.71
12951;BME280;6540;50.858;7.232;2023-03-13T00:31:21;51822.25;;;-142.34;28.02
12951;BME280;6540;50.858;7.232;2023-03-13T00:33:49;51812.19;;;-142.34;28.49
12951;BME280;6540;50.858;7.232;2023-03-13T00:36:21;51842.44;;;-142.34;28.20
12951;BME280;6540;50.858;7.232;2023-03-13T00:38:47;51822.25;;;-142.34;28.13
12951;BME280;6540;50.858;7.232;2023-03-13T00:41:14;51812.19;;;-142.34;28.83
12951;BME280;6540;50.858;7.232;2023-03-13T00:43:41;51810.16;;;-142.34;28.54
12951;BME280;6540;50.858;7.232;2023-03-13T00:46:07;51822.25;;;-142.34;29.19
12951;BME280;6540;50.858;7.232;2023-03-13T00:48:33;51814.19;;;-142.34;29.14
12951;BME280;6540;50.858;7.232;2023-03-13T00:50:59;51814.19;;;-142.34;28.82
12951;BME280;6540;50.858;7.232;2023-03-13T00:53:24;51826.31;;;-142.34;29.07
12951;BME280;6540;50.858;7.232;2023-03-13T00:56:01;51806.13;;;-142.34;28.48
12951;BME280;6540;50.858;7.232;2023-03-13T00:58:28;51838.41;;;-142.34;28.95
12951;BME280;6540;50.858;7.232;2023-03-13T01:00:54;51794.03;;;-142.34;28.73
12951;BME280;6540;50.858;7.232;2023-03-13T01:03:22;51800.06;;;-142.34;28.77
12951;BME280;6540;50.858;7.232;2023-03-13T01:05:56;51816.22;;;-142.34;28.83
12951;BME280;6540;50.858;7.232;2023-03-13T01:08:22;51818.22;;;-142.34;29.92
12951;BME280;6540;50.858;7.232;2023-03-13T01:10:48;51804.13;;;-142.34;29.71
12951;BME280;6540;50.858;7.232;2023-03-13T01:13:13;51850.50;;;-142.34;29.95
12951;BME280;6540;50.858;7.232;2023-03-13T01:15:38;51824.28;;;-142.34;29.34
12951;BME280;6540;50.858;7.232;2023-03-13T01:18:04;51820.25;;;-142.34;29.53
12951;BME280;6540;50.858;7.232;2023-03-13T01:20:29;51826.31;;;-142.34;30.65
12951;BME280;6540;50.858;7.232;2023-03-13T01:22:55;51830.34;;;-142.34;30.38
12951;BME280;6540;50.858;7.232;2023-03-13T01:25:20;51846.47;;;-142.34;31.37
12951;BME280;6540;50.858;7.232;2023-03-13T01:27:46;51810.16;;;-142.34;30.61
12951;BME280;6540;50.858;7.232;2023-03-13T01:30:11;51798.06;;;-142.34;29.92
12951;BME280;6540;50.858;7.232;2023-03-13T01:32:37;51818.22;;;-142.34;30.13
12951;BME280;6540;50.858;7.232;2023-03-13T01:35:02;51804.13;;;-142.34;30.96
12951;BME280;6540;50.858;7.232;2023-03-13T01:37:27;51826.31;;;-142.34;29.91
12951;BME280;6540;50.858;7.232;2023-03-13T01:39:53;51812.19;;;-142.34;30.21
12951;BME280;6540;50.858;7.232;2023-03-13T01:42:18;51816.22;;;-142.34;29.87
12951;BME280;6540;50.858;7.232;2023-03-13T01:44:55;51814.19;;;-142.34;29.38
12951;BME280;6540;50.858;7.232;2023-03-13T01:47:20;51808.16;;;-142.34;29.94
12951;BME280;6540;50.858;7.232;2023-03-13T01:49:48;51846.47;;;-142.34;29.55
12951;BME280;6540;50.858;7.232;2023-03-13T01:57:24;51777.88;;;-142.34;29.71
12951;BME280;6540;50.858;7.232;2023-03-13T02:00:00;51779.91;;;-142.34;29.23
12951;BME280;6540;50.858;7.232;2023-03-13T02:02:29;51810.16;;;-142.34;29.41
12951;BME280;6540;50.858;7.232;2023-03-13T02:04:57;51806.13;;;-142.34;29.46
12951;BME280;6540;50.858;7.232;2023-03-13T02:10:03;51810.16;;;-142.34;29.56
12951;BME280;6540;50.858;7.232;2023-03-13T02:12:34;51790.00;;;-142.34;29.21
12951;BME280;6540;50.858;7.232;2023-03-13T02:15:04;51802.09;;;-142.34;29.38
12951;BME280;6540;50.858;7.232;2023-03-13T02:17:31;51775.88;;;-142.34;29.81
12951;BME280;6540;50.858;7.232;2023-03-13T02:19:58;51814.19;;;-142.34;30.45
12951;BME280;6540;50.858;7.232;2023-03-13T02:22:31;51820.25;;;-142.34;29.34
12951;BME280;6540;50.858;7.232;2023-03-13T02:31:05;51800.06;;;-142.34;28.71
12951;BME280;6540;50.858;7.232;2023-03-13T02:33:41;51785.94;;;-142.34;29.09
12951;BME280;6540;50.858;7.232;2023-03-13T02:36:07;51781.91;;;-142.34;29.01
12951;BME280;6540;50.858;7.232;2023-03-13T02:38:37;51775.88;;;-142.34;29.81
12951;BME280;6540;50.858;7.232;2023-03-13T02:41:03;51832.34;;;-142.34;31.48
12951;BME280;6540;50.858;7.232;2023-03-13T02:43:34;51792.00;;;-142.34;30.75
12951;BME280;6540;50.858;7.232;2023-03-13T02:46:14;51773.84;;;-142.34;29.31
12951;BME280;6540;50.858;7.232;2023-03-13T02:49:16;51796.03;;;-142.34;29.71
12951;BME280;6540;50.858;7.232;2023-03-13T02:51:43;51773.84;;;-142.34;30.32
12951;BME280;6540;50.858;7.232;2023-03-13T02:54:15;51800.06;;;-142.34;31.15
12951;BME280;6540;50.858;7.232;2023-03-13T02:56:44;51790.00;;;-142.34;30.25
12951;BME280;6540;50.858;7.232;2023-03-13T02:59:11;51826.31;;;-142.34;30.43
12951;BME280;6540;50.858;7.232;2023-03-13T03:01:36;51781.91;;;-142.34;29.85
12951;BME280;6540;50.858;7.232;2023-03-13T03:04:02;51794.03;;;-142.34;29.82
12951;BME280;6540;50.858;7.232;2023-03-13T03:06:27;51806.13;;;-142.34;30.25
12951;BME280;6540;50.858;7.232;2023-03-13T03:08:52;51792.00;;;-142.34;31.48
12951;BME280;6540;50.858;7.232;2023-03-13T03:11:18;51826.31;;;-142.34;31.48
12951;BME280;6540;50.858;7.232;2023-03-13T03:13:43;51798.06;;;-142.34;31.25
12951;BME280;6540;50.858;7.232;2023-03-13T03:16:11;51777.88;;;-142.34;30.65
12951;BME280;6540;50.858;7.232;2023-03-13T03:18:39;51779.91;;;-142.34;30.13
12951;BME280;6540;50.858;7.232;2023-03-13T03:21:05;51783.94;;;-142.34;29.72
12951;BME280;6540;50.858;7.232;2023-03-13T03:23:35;51790.00;;;-142.34;30.03
12951;BME280;6540;50.858;7.232;2023-03-13T03:26:02;51790.00;;;-142.34;30.53
12951;BME280;6540;50.858;7.232;2023-03-13T03:28:28;51810.16;;;-142.34;30.38
12951;BME280;6540;50.858;7.232;2023-03-13T03:30:53;51773.84;;;-142.34;30.50
12951;BME280;6540;50.858;7.232;2023-03-13T03:33:20;51781.91;;;-142.34;30.65
12951;BME280;6540;50.858;7.232;2023-03-13T03:35:45;51810.16;;;-142.34;30.31
12951;BME280;6540;50.858;7.232;2023-03-13T03:38:11;51785.94;;;-142.34;30.15
12951;BME280;6540;50.858;7.232;2023-03-13T03:40:36;51804.13;;;-142.34;32.10
12951;BME280;6540;50.858;7.232;2023-03-13T03:43:01;51794.03;;;-142.34;30.79
12951;BME280;6540;50.858;7.232;2023-03-13T03:45:26;51781.91;;;-142.34;30.53
12951;BME280;6540;50.858;7.232;2023-03-13T03:47:52;51781.91;;;-142.34;31.60
12951;BME280;6540;50.858;7.232;2023-03-13T03:50:17;51830.34;;;-142.34;30.84
12951;BME280;6540;50.858;7.232;2023-03-13T03:52:43;51812.19;;;-142.34;30.14
12951;BME280;6540;50.858;7.232;2023-03-13T03:55:08;51818.22;;;-142.34;30.15
12951;BME280;6540;50.858;7.232;2023-03-13T03:57:33;51802.09;;;-142.34;30.69
12951;BME280;6540;50.858;7.232;2023-03-13T03:59:59;51810.16;;;-142.34;31.45
12951;BME280;6540;50.858;7.232;2023-03-13T04:02:24;51820.25;;;-142.34;30.51
12951;BME280;6540;50.858;7.232;2023-03-13T04:04:49;51842.44;;;-142.34;32.18
12951;BME280;6540;50.858;7.232;2023-03-13T04:07:15;51785.94;;;-142.34;30.89
12951;BME280;6540;50.858;7.232;2023-03-13T04:09:40;51800.06;;;-142.34;29.75
12951;BME280;6540;50.858;7.232;2023-03-13T04:12:06;51802.09;;;-142.34;30.99
12951;BME280;6540;50.858;7.232;2023-03-13T04:14:31;51802.09;;;-142.34;31.92
12951;BME280;6540;50.858;7.232;2023-03-13T04:16:57;51826.31;;;-142.34;31.06
12951;BME280;6540;50.858;7.232;2023-03-13T04:19:22;51826.31;;;-142.34;30.60
12951;BME280;6540;50.858;7.232;2023-03-13T04:21:47;51846.47;;;-142.34;32.98
12951;BME280;6540;50.858;7.232;2023-03-13T04:24:13;51838.41;;;-142.34;32.03
12951;BME280;6540;50.858;7.232;2023-03-13T04:26:38;51826.31;;;-142.34;30.88
12951;BME280;6540;50.858;7.232;2023-03-13T04:29:03;51790.00;;;-142.34;31.26
12951;BME280;6540;50.858;7.232;2023-03-13T04:31:30;51792.00;;;-142.34;30.17
12951;BME280;6540;50.858;7.232;2023-03-13T04:33:56;51790.00;;;-142.34;30.33
12951;BME280;6540;50.858;7.232;2023-03-13T04:36:21;51798.06;;;-142.34;30.68
12951;BME280;6540;50.858;7.232;2023-03-13T04:38:47;51777.88;;;-142.34;29.46
12951;BME280;6540;50.858;7.232;2023-03-13T04:41:12;51796.03;;;-142.34;29.50
12951;BME280;6540;50.858;7.232;2023-03-13T04:43:37;51771.84;;;-142.34;30.19
12951;BME280;6540;50.858;7.232;2023-03-13T04:46:03;51761.75;;;-142.34;32.29
12951;BME280;6540;50.858;7.232;2023-03-13T04:48:28;51830.34;;;-142.34;30.62
12951;BME280;6540;50.858;7.232;2023-03-13T04:50:54;51755.69;;;-142.34;29.87
12951;BME280;6540;50.858;7.232;2023-03-13T04:53:19;51777.88;;;-142.34;29.79
12951;BME280;6540;50.858;7.232;2023-03-13T04:55:46;51773.84;;;-142.34;29.63
12951;BME280;6540;50.858;7.232;2023-03-13T04:58:12;51753.69;;;-142.34;30.18
12951;BME280;6540;50.858;7.232;2023-03-13T05:00:39;51759.72;;;-142.34;30.21
12951;BME280;6540;50.858;7.232;2023-03-13T05:03:05;51785.94;;;-142.34;30.02
12951;BME280;6540;50.858;7.232;2023-03-13T05:05:32;51753.69;;;-142.34;29.43
12951;BME280;6540;50.858;7.232;2023-03-13T05:07:58;51790.00;;;-142.34;30.14
12951;BME280;6540;50.858;7.232;2023-03-13T05:10:23;51729.47;;;-142.34;29.35
12951;BME280;6540;50.858;7.232;2023-03-13T05:12:48;51781.91;;;-142.34;30.96
12951;BME280;6540;50.858;7.232;2023-03-13T05:15:14;51755.69;;;-142.34;29.79
12951;BME280;6540;50.858;7.232;2023-03-13T05:17:39;51757.72;;;-142.34;29.72
12951;BME280;6540;50.858;7.232;2023-03-13T05:20:05;51765.78;;;-142.34;30.47
12951;BME280;6540;50.858;7.232;2023-03-13T05:22:32;51741.56;;;-142.34;29.65
12951;BME280;6540;50.858;7.232;2023-03-13T05:24:57;51773.84;;;-142.34;29.65
12951;BME280;6540;50.858;7.232;2023-03-13T05:27:22;51757.72;;;-142.34;29.85
12951;BME280;6540;50.858;7.232;2023-03-13T05:29:48;51773.84;;;-142.34;30.27
12951;BME280;6540;50.858;7.232;2023-03-13T05:32:13;51792.00;;;-142.34;29.92
12951;BME280;6540;50.858;7.232;2023-03-13T05:34:38;51763.75;;;-142.34;30.26
12951;BME280;6540;50.858;7.232;2023-03-13T05:37:04;51773.84;;;-142.34;29.90
12951;BME280;6540;50.858;7.232;2023-03-13T05:39:29;51753.69;;;-142.34;29.85
12951;BME280;6540;50.858;7.232;2023-03-13T05:41:54;51769.81;;;-142.34;30.64
12951;BME280;6540;50.858;7.232;2023-03-13T05:44:20;51779.91;;;-142.34;30.28
12951;BME280;6540;50.858;7.232;2023-03-13T05:46:45;51773.84;;;-142.34;29.73
12951;BME280;6540;50.858;7.232;2023-03-13T05:49:10;51822.25;;;-142.34;30.32
12951;BME280;6540;50.858;7.232;2023-03-13T05:51:36;51747.63;;;-142.34;30.27
12951;BME280;6540;50.858;7.232;2023-03-13T05:54:01;51775.88;;;-142.34;30.09
12951;BME280;6540;50.858;7.232;2023-03-13T05:56:26;51741.56;;;-142.34;30.19
12951;BME280;6540;50.858;7.232;2023-03-13T05:58:52;51802.09;;;-142.34;30.91
12951;BME280;6540;50.858;7.232;2023-03-13T06:01:17;51816.22;;;-142.34;30.11
12951;BME280;6540;50.858;7.232;2023-03-13T06:03:42;51765.78;;;-142.34;29.62
12951;BME280;6540;50.858;7.232;2023-03-13T06:06:08;51769.81;;;-142.34;30.10
12951;BME280;6540;50.858;7.232;2023-03-13T06:08:33;51767.81;;;-142.34;30.37
12951;BME280;6540;50.858;7.232;2023-03-13T06:10:59;51761.75;;;-142.34;30.08
12951;BME280;6540;50.858;7.232;2023-03-13T06:13:25;51783.94;;;-142.34;29.81
12951;BME280;6540;50.858;7.232;2023-03-13T06:15:52;51761.75;;;-142.34;29.60
12951;BME280;6540;50.858;7.232;2023-03-13T06:18:17;51794.03;;;-142.34;30.29
12951;BME280;6540;50.858;7.232;2023-03-13T06:20:43;51806.13;;;-142.34;30.92
12951;BME280;6540;50.858;7.232;2023-03-13T06:23:08;51771.84;;;-142.34;30.60
12951;BME280;6540;50.858;7.232;2023-03-13T06:25:34;51773.84;;;-142.34;30.07
12951;BME280;6540;50.858;7.232;2023-03-13T06:27:59;51755.69;;;-142.34;30.38
12951;BME280;6540;50.858;7.232;2023-03-13T06:30:24;51775.88;;;-142.34;30.26
12951;BME280;6540;50.858;7.232;2023-03-13T06:32:50;51808.16;;;-142.34;31.57
12951;BME280;6540;50.858;7.232;2023-03-13T06:35:15;51794.03;;;-142.34;31.32
12951;BME280;6540;50.858;7.232;2023-03-13T06:37:40;51794.03;;;-142.34;33.13
12951;BME280;6540;50.858;7.232;2023-03-13T06:40:06;51790.00;;;-142.34;31.69
12951;BME280;6540;50.858;7.232;2023-03-13T06:42:32;51860.59;;;-142.34;32.74
12951;BME280;6540;50.858;7.232;2023-03-13T06:44:57;51832.34;;;-142.34;32.38
12951;BME280;6540;50.858;7.232;2023-03-13T06:47:23;51806.13;;;-142.34;31.92
12951;BME280;6540;50.858;7.232;2023-03-13T06:49:48;51818.22;;;-142.34;32.68
12951;BME280;6540;50.858;7.232;2023-03-13T06:52:14;51824.28;;;-142.34;32.81
12951;BME280;6540;50.858;7.232;2023-03-13T06:54:40;51787.97;;;-142.34;32.33
12951;BME280;6540;50.858;7.232;2023-03-13T06:57:05;51802.09;;;-142.34;32.44
12951;BME280;6540;50.858;7.232;2023-03-13T06:59:30;51822.25;;;-142.34;32.00
12951;BME280;6540;50.858;7.232;2023-03-13T07:01:55;51822.25;;;-142.34;32.14
12951;BME280;6540;50.858;7.232;2023-03-13T07:04:21;51785.94;;;-142.34;31.78
12951;BME280;6540;50.858;7.232;2023-03-13T07:06:46;51800.06;;;-142.34;32.31
12951;BME280;6540;50.858;7.232;2023-03-13T07:09:12;51796.03;;;-142.34;31.94
12951;BME280;6540;50.858;7.232;2023-03-13T07:11:37;51800.06;;;-142.34;31.67
12951;BME280;6540;50.858;7.232;2023-03-13T07:14:03;51798.06;;;-142.34;32.37
12951;BME280;6540;50.858;7.232;2023-03-13T07:16:28;51804.13;;;-142.34;32.64
12951;BME280;6540;50.858;7.232;2023-03-13T07:18:54;51761.75;;;-142.34;32.12
12951;BME280;6540;50.858;7.232;2023-03-13T07:21:19;51818.22;;;-142.34;32.97
12951;BME280;6540;50.858;7.232;2023-03-13T07:23:44;51800.06;;;-142.34;32.43
12951;BME280;6540;50.858;7.232;2023-03-13T07:26:12;51779.91;;;-142.34;32.12
12951;BME280;6540;50.858;7.232;2023-03-13T07:28:38;51820.25;;;-142.34;32.32
12951;BME280;6540;50.858;7.232;2023-03-13T07:33:37;51814.19;;;-142.34;31.39
12951;BME280;6540;50.858;7.232;2023-03-13T07:36:03;51794.03;;;-142.34;30.66
12951;BME280;6540;50.858;7.232;2023-03-13T07:38:28;51814.19;;;-142.34;30.96
12951;BME280;6540;50.858;7.232;2023-03-13T07:40:55;51769.81;;;-142.34;30.25
12951;BME280;6540;50.858;7.232;2023-03-13T07:43:22;51769.81;;;-142.34;32.19
12951;BME280;6540;50.858;7.232;2023-03-13T07:48:21;51798.06;;;-142.34;31.54
12951;BME280;6540;50.858;7.232;2023-03-13T07:50:48;51777.88;;;-142.34;30.63
12951;BME280;6540;50.858;7.232;2023-03-13T07:53:14;51806.13;;;-142.34;31.77
12951;BME280;6540;50.858;7.232;2023-03-13T07:55:51;51814.19;;;-142.34;31.94
12951;BME280;6540;50.858;7.232;2023-03-13T07:58:16;51800.06;;;-142.34;31.81
12951;BME280;6540;50.858;7.232;2023-03-13T08:00:42;51787.97;;;-142.34;31.89
12951;BME280;6540;50.858;7.232;2023-03-13T08:03:07;51777.88;;;-142.34;30.29
12951;BME280;6540;50.858;7.232;2023-03-13T08:05:33;51806.13;;;-142.34;30.91
12951;BME280;6540;50.858;7.232;2023-03-13T08:07:58;51810.16;;;-142.34;30.94
12951;BME280;6540;50.858;7.232;2023-03-13T08:10:24;51802.09;;;-142.34;31.21
12951;BME280;6540;50.858;7.232;2023-03-13T08:12:49;51796.03;;;-142.34;31.23
12951;BME280;6540;50.858;7.232;2023-03-13T08:15:14;51769.81;;;-142.34;30.24
12951;BME280;6540;50.858;7.232;2023-03-13T08:17:40;51777.88;;;-142.34;31.43
12951;BME280;6540;50.858;7.232;2023-03-13T08:20:06;51765.78;;;-142.34;30.26
12951;BME280;6540;50.858;7.232;2023-03-13T08:22:32;51781.91;;;-142.34;29.87
12951;BME280;6540;50.858;7.232;2023-03-13T08:24:58;51751.66;;;-142.34;31.34
12951;BME280;6540;50.858;7.232;2023-03-13T08:27:23;51800.06;;;-142.34;31.20
12951;BME280;6540;50.858;7.232;2023-03-13T08:29:48;51826.31;;;-142.34;31.04
12951;BME280;6540;50.858;7.232;2023-03-13T08:32:14;51826.31;;;-142.34;30.66
12951;BME280;6540;50.858;7.232;2023-03-13T08:34:39;51820.25;;;-142.34;30.83
12951;BME280;6540;50.858;7.232;2023-03-13T08:37:04;51806.13;;;-142.34;30.40
12951;BME280;6540;50.858;7.232;2023-03-13T08:39:30;51790.00;;;-142.34;29.92
12951;BME280;6540;50.858;7.232;2023-03-13T08:41:55;51773.84;;;-142.34;31.21
12951;BME280;6540;50.858;7.232;2023-03-13T08:44:20;51820.25;;;-142.34;30.60
12951;BME280;6540;50.858;7.232;2023-03-13T08:46:46;51810.16;;;-142.34;31.58
12951;BME280;6540;50.858;7.232;2023-03-13T08:49:13;51796.03;;;-142.34;30.55
12951;BME280;6540;50.858;7.232;2023-03-13T08:51:38;51794.03;;;-142.34;30.92
12951;BME280;6540;50.858;7.232;2023-03-13T08:54:04;51777.88;;;-142.34;30.45
12951;BME280;6540;50.858;7.232;2023-03-13T08:56:30;51765.78;;;-142.34;31.15
12951;BME280;6540;50.858;7.232;2023-03-13T08:58:58;51757.72;;;-142.34;30.36
12951;BME280;6540;50.858;7.232;2023-03-13T09:01:27;51769.81;;;-142.34;30.31
12951;BME280;6540;50.858;7.232;2023-03-13T09:03:52;51790.00;;;-142.34;31.29
12951;BME280;6540;50.858;7.232;2023-03-13T09:06:18;51832.34;;;-142.34;31.40
12951;BME280;6540;50.858;7.232;2023-03-13T09:08:43;51822.25;;;-142.34;31.16
12951;BME280;6540;50.858;7.232;2023-03-13T09:11:12;51781.91;;;-142.34;31.57
12951;BME280;6540;50.858;7.232;2023-03-13T09:13:39;51804.13;;;-142.34;30.44
12951;BME280;6540;50.858;7.232;2023-03-13T09:16:19;51792.00;;;-142.34;30.95
12951;BME280;6540;50.858;7.232;2023-03-13T09:18:45;51810.16;;;-142.34;31.72
12951;BME280;6540;50.858;7.232;2023-03-13T09:21:14;51765.78;;;-142.34;31.29
12951;BME280;6540;50.858;7.232;2023-03-13T09:23:40;51769.81;;;-142.34;30.59
12951;BME280;6540;50.858;7.232;2023-03-13T09:26:06;51783.94;;;-142.34;31.54
12951;BME280;6540;50.858;7.232;2023-03-13T09:28:32;51808.16;;;-142.34;30.82
12951;BME280;6540;50.858;7.232;2023-03-13T09:31:08;51802.09;;;-142.34;31.43
12951;BME280;6540;50.858;7.232;2023-03-13T09:33:34;51802.09;;;-142.34;32.47
12951;BME280;6540;50.858;7.232;2023-03-13T09:36:00;51826.31;;;-142.34;33.29
12951;BME280;6540;50.858;7.232;2023-03-13T09:38:25;51794.03;;;-142.34;31.61
12951;BME280;6540;50.858;7.232;2023-03-13T09:40:52;51832.34;;;-142.34;32.30
12951;BME280;6540;50.858;7.232;2023-03-13T09:43:48;51818.22;;;-142.34;31.01
12951;BME280;6540;50.858;7.232;2023-03-13T09:46:32;51781.91;;;-142.34;31.00
12951;BME280;6540;50.858;7.232;2023-03-13T09:49:11;51783.94;;;-142.34;31.23
12951;BME280;6540;50.858;7.232;2023-03-13T09:51:41;51806.13;;;-142.34;31.27
12951;BME280;6540;50.858;7.232;2023-03-13T09:54:32;51794.03;;;-142.34;31.53
12951;BME280;6540;50.858;7.232;2023-03-13T09:57:04;51822.25;;;-142.34;32.33
12951;BME280;6540;50.858;7.232;2023-03-13T10:01:59;51765.78;;;-142.34;31.54
12951;BME280;6540;50.858;7.232;2023-03-13T10:04:37;51781.91;;;-142.34;31.43
12951;BME280;6540;50.858;7.232;2023-03-13T10:07:09;51781.91;;;-142.34;30.66
12951;BME280;6540;50.858;7.232;2023-03-13T10:09:35;51781.91;;;-142.34;31.02
12951;BME280;6540;50.858;7.232;2023-03-13T10:12:17;51816.22;;;-142.34;30.89
12951;BME280;6540;50.858;7.232;2023-03-13T10:17:37;51765.78;;;-142.34;31.28
12951;BME280;6540;50.858;7.232;2023-03-13T10:20:25;51769.81;;;-142.34;31.28
12951;BME280;6540;50.858;7.232;2023-03-13T10:22:56;51773.84;;;-142.34;30.84
12951;BME280;6540;50.858;7.232;2023-03-13T10:25:31;51769.81;;;-142.34;29.60
12951;BME280;6540;50.858;7.232;2023-03-13T10:27:57;51753.69;;;-142.34;30.53
12951;BME280;6540;50.858;7.232;2023-03-13T10:30:34;51790.00;;;-142.34;31.18
12951;BME280;6540;50.858;7.232;2023-03-13T10:33:15;51757.72;;;-142.34;30.27
12951;BME280;6540;50.858;7.232;2023-03-13T10:35:43;51749.66;;;-142.34;31.33
12951;BME280;6540;50.858;7.232;2023-03-13T10:38:12;51763.75;;;-142.34;29.65
12951;BME280;6540;50.858;7.232;2023-03-13T10:40:38;51753.69;;;-142.34;30.00
12951;BME280;6540;50.858;7.232;2023-03-13T10:43:11;51761.75;;;-142.34;30.50
12951;BME280;6540;50.858;7.232;2023-03-13T10:45:37;51731.50;;;-142.34;29.32
12951;BME280;6540;50.858;7.232;2023-03-13T10:48:11;51729.47;;;-142.34;28.90
12951;BME280;6540;50.858;7.232;2023-03-13T10:50:41;51713.34;;;-142.34;29.41
12951;BME280;6540;50.858;7.232;2023-03-13T10:55:47;51731.50;;;-142.34;30.15
12951;BME280;6540;50.858;7.232;2023-03-13T10:58:26;51709.31;;;-142.34;29.20
12951;BME280;6540;50.858;7.232;2023-03-13T11:03:41;51725.44;;;-142.34;29.75
12951;BME280;6540;50.858;7.232;2023-03-13T11:09:12;51677.03;;;-142.34;29.60
12951;BME280;6540;50.858;7.232;2023-03-13T11:11:51;51707.28;;;-142.34;29.18
12951;BME280;6540;50.858;7.232;2023-03-13T11:14:20;51695.19;;;-142.34;29.04
12951;BME280;6540;50.858;7.232;2023-03-13T11:19:28;51701.22;;;-142.34;29.75
12951;BME280;6540;50.858;7.232;2023-03-13T11:25:08;51687.09;;;-142.34;29.33
12951;BME280;6540;50.858;7.232;2023-03-13T11:33:41;51666.94;;;-142.34;28.46
12951;BME280;6540;50.858;7.232;2023-03-13T11:38:42;51675.00;;;-142.34;28.76
12951;BME280;6540;50.858;7.232;2023-03-13T11:41:21;51697.19;;;-142.34;30.44
12951;BME280;6540;50.858;7.232;2023-03-13T11:52:39;51693.16;;;-142.34;29.12
12951;BME280;6540;50.858;7.232;2023-03-13T11:55:33;51727.44;;;-142.34;29.39
12951;BME280;6540;50.858;7.232;2023-03-13T12:01:13;51763.75;;;-142.34;31.41
12951;BME280;6540;50.858;7.232;2023-03-13T12:06:59;51737.53;;;-142.34;30.28
12951;BME280;6540;50.858;7.232;2023-03-13T12:09:33;51790.00;;;-142.34;30.77
12951;BME280;6540;50.858;7.232;2023-03-13T12:15:18;51745.59;;;-142.34;30.04
12951;BME280;6540;50.858;7.232;2023-03-13T12:17:49;51737.53;;;-142.34;30.15
12951;BME280;6540;50.858;7.232;2023-03-13T12:20:39;51781.91;;;-142.34;32.30
12951;BME280;6540;50.858;7.232;2023-03-13T12:23:16;51804.13;;;-142.34;31.24
12951;BME280;6540;50.858;7.232;2023-03-13T12:25:46;51757.72;;;-142.34;31.18
12951;BME280;6540;50.858;7.232;2023-03-13T12:31:42;51777.88;;;-142.34;31.61
12951;BME280;6540;50.858;7.232;2023-03-13T12:34:18;51751.66;;;-142.34;30.21
12951;BME280;6540;50.858;7.232;2023-03-13T12:36:51;51739.56;;;-142.34;30.48
12951;BME280;6540;50.858;7.232;2023-03-13T12:44:49;51759.72;;;-142.34;30.56
12951;BME280;6540;50.858;7.232;2023-03-13T12:47:19;51775.88;;;-142.34;30.55
12951;BME280;6540;50.858;7.232;2023-03-13T12:55:26;51765.78;;;-142.34;30.48
12951;BME280;6540;50.858;7.232;2023-03-13T13:00:26;51763.75;;;-142.34;30.53
12951;BME280;6540;50.858;7.232;2023-03-13T13:06:06;51777.88;;;-142.34;29.72
12951;BME280;6540;50.858;7.232;2023-03-13T13:09:12;51749.66;;;-142.34;29.87
12951;BME280;6540;50.858;7.232;2023-03-13T13:16:58;51773.84;;;-142.34;30.72
12951;BME280;6540;50.858;7.232;2023-03-13T13:24:56;51773.84;;;-142.34;30.70
12951;BME280;6540;50.858;7.232;2023-03-13T13:27:46;51781.91;;;-142.34;30.73
12951;BME280;6540;50.858;7.232;2023-03-13T13:43:23;51767.81;;;-142.34;30.89
12951;BME280;6540;50.858;7.232;2023-03-13T13:48:38;51785.94;;;-142.34;30.60
12951;BME280;6540;50.858;7.232;2023-03-13T13:53:45;51741.56;;;-142.34;30.36
12951;BME280;6540;50.858;7.232;2023-03-13T13:59:24;51810.16;;;-142.34;30.90
12951;BME280;6540;50.858;7.232;2023-03-13T14:02:13;51741.56;;;-142.34;29.66
12951;BME280;6540;50.858;7.232;2023-03-13T14:07:15;51743.59;;;-142.34;30.77
12951;BME280;6540;50.858;7.232;2023-03-13T14:17:45;51733.50;;;-142.34;30.39
12951;BME280;6540;50.858;7.232;2023-03-13T14:22:55;51737.53;;;-142.34;30.31
12951;BME280;6540;50.858;7.232;2023-03-13T14:25:23;51729.47;;;-142.34;30.07
12951;BME280;6540;50.858;7.232;2023-03-13T14:27:50;51725.44;;;-142.34;30.59
12951;BME280;6540;50.858;7.232;2023-03-13T14:30:17;51745.59;;;-142.34;31.18
12951;BME280;6540;50.858;7.232;2023-03-13T14:32:43;51741.56;;;-142.34;30.02
12951;BME280;6540;50.858;7.232;2023-03-13T14:35:12;51737.53;;;-142.34;30.22
12951;BME280;6540;50.858;7.232;2023-03-13T14:37:45;51733.50;;;-142.34;29.40
12951;BME280;6540;50.858;7.232;2023-03-13T14:40:23;51729.47;;;-142.34;28.96
12951;BME280;6540;50.858;7.232;2023-03-13T14:42:54;51719.38;;;-142.34;29.29
12951;BME280;6540;50.858;7.232;2023-03-13T14:45:33;51733.50;;;-142.34;30.32
12951;BME280;6540;50.858;7.232;2023-03-13T14:48:13;51761.75;;;-142.34;29.63
12951;BME280;6540;50.858;7.232;2023-03-13T14:50:41;51769.81;;;-142.34;31.43
12951;BME280;6540;50.858;7.232;2023-03-13T14:53:26;51761.75;;;-142.34;31.52
12951;BME280;6540;50.858;7.232;2023-03-13T14:58:37;51763.75;;;-142.34;31.60
12951;BME280;6540;50.858;7.232;2023-03-13T15:01:32;51753.69;;;-142.34;30.55
12951;BME280;6540;50.858;7.232;2023-03-13T15:03:58;51769.81;;;-142.34;31.04
12951;BME280;6540;50.858;7.232;2023-03-13T15:06:24;51773.84;;;-142.34;30.71
12951;BME280;6540;50.858;7.232;2023-03-13T15:11:41;51749.66;;;-142.34;30.29
12951;BME280;6540;50.858;7.232;2023-03-13T15:14:37;51753.69;;;-142.34;30.41